createdAt,value
2023-11-20T00:00:58.259Z,949.5
2023-11-20T00:02:00.473Z,949.5
2023-11-20T00:03:02.571Z,949.5
2023-11-20T00:04:05.415Z,949.4
2023-11-20T00:05:07.419Z,949.5
2023-11-20T00:06:09.151Z,949.5
2023-11-20T00:07:10.931Z,949.5
2023-11-20T00:08:12.649Z,949.5
2023-11-20T00:09:14.471Z,949.6
2023-11-20T00:10:16.269Z,949.6
2023-11-20T00:11:18.339Z,949.6
2023-11-20T00:12:20.236Z,949.6
2023-11-20T00:13:22.058Z,949.7
2023-11-20T00:14:23.903Z,949.7
2023-11-20T00:15:25.817Z,949.7
2023-11-20T00:16:27.837Z,949.8
2023-11-20T00:17:30.062Z,949.8
2023-11-20T00:18:32.027Z,949.8
2023-11-20T00:19:33.984Z,949.8
2023-11-20T00:20:35.705Z,949.9
2023-11-20T00:21:37.509Z,949.9
2023-11-20T00:22:39.304Z,949.8
2023-11-20T00:23:41.068Z,949.8
2023-11-20T00:24:43.030Z,949.7
2023-11-20T00:25:44.816Z,949.8
2023-11-20T00:26:46.569Z,949.8
2023-11-20T00:27:48.578Z,949.7
2023-11-20T00:28:50.452Z,949.7
2023-11-20T00:29:52.324Z,949.8
2023-11-20T00:30:54.206Z,949.9
2023-11-20T00:31:56.268Z,950
2023-11-20T00:32:58.425Z,950
2023-11-20T00:34:00.623Z,950
2023-11-20T00:35:02.506Z,950
2023-11-20T00:36:04.294Z,950.1
2023-11-20T00:37:06.470Z,950.1
2023-11-20T00:38:08.600Z,950.1
2023-11-20T00:39:10.387Z,950
2023-11-20T00:40:12.187Z,950
2023-11-20T00:41:14.184Z,950.1
2023-11-20T00:42:15.986Z,950.1
2023-11-20T00:43:17.874Z,950.1
2023-11-20T00:44:19.647Z,950
2023-11-20T00:45:21.496Z,950
2023-11-20T00:46:23.885Z,950
2023-11-20T00:47:26.257Z,950.1
2023-11-20T00:48:28.456Z,950
2023-11-20T00:49:30.293Z,950
2023-11-20T00:50:32.089Z,950
2023-11-20T00:51:34.045Z,950
2023-11-20T00:52:36.015Z,950.1
2023-11-20T00:53:37.782Z,950
2023-11-20T00:54:39.766Z,949.9
2023-11-20T00:55:41.986Z,949.9
2023-11-20T00:56:43.795Z,949.9
2023-11-20T00:57:45.633Z,950
2023-11-20T00:58:47.657Z,949.9
2023-11-20T00:59:49.409Z,949.9
2023-11-20T01:00:51.355Z,949.9
2023-11-20T01:01:53.599Z,949.9
2023-11-20T01:02:55.901Z,949.8
2023-11-20T01:03:58.395Z,949.8
2023-11-20T01:05:00.468Z,949.8
2023-11-20T01:06:02.275Z,949.7
2023-11-20T01:07:04.296Z,949.8
2023-11-20T01:08:08.533Z,949.8
2023-11-20T01:09:10.359Z,949.7
2023-11-20T01:10:12.501Z,949.8
2023-11-20T01:11:14.266Z,949.7
2023-11-20T01:12:16.053Z,949.6
2023-11-20T01:13:17.842Z,949.5
2023-11-20T01:14:19.911Z,949.5
2023-11-20T01:15:21.781Z,949.4
2023-11-20T01:16:23.612Z,949.3
2023-11-20T01:17:25.779Z,949.4
2023-11-20T01:18:28.029Z,949.4
2023-11-20T01:19:30.033Z,949.4
2023-11-20T01:20:31.861Z,949.4
2023-11-20T01:21:33.715Z,949.4
2023-11-20T01:22:35.606Z,949.4
2023-11-20T01:23:37.367Z,949.4
2023-11-20T01:24:39.312Z,949.4
2023-11-20T01:25:41.141Z,949.6
2023-11-20T01:26:42.945Z,949.6
2023-11-20T01:27:44.923Z,949.6
2023-11-20T01:28:46.781Z,949.6
2023-11-20T01:29:48.693Z,949.6
2023-11-20T01:30:50.637Z,949.6
2023-11-20T01:31:52.604Z,949.6
2023-11-20T01:32:54.677Z,949.6
2023-11-20T01:33:56.733Z,949.7
2023-11-20T01:34:58.590Z,949.7
2023-11-20T01:36:00.393Z,949.6
2023-11-20T01:37:02.515Z,949.6
2023-11-20T01:38:04.485Z,949.7
2023-11-20T01:39:06.244Z,949.6
2023-11-20T01:40:08.218Z,949.7
2023-11-20T01:41:10.054Z,949.7
2023-11-20T01:42:11.910Z,949.7
2023-11-20T01:43:13.812Z,949.7
2023-11-20T01:44:15.623Z,949.8
2023-11-20T01:45:17.571Z,949.8
2023-11-20T01:46:20.081Z,949.8
2023-11-20T01:47:22.040Z,949.8
2023-11-20T01:48:23.768Z,949.9
2023-11-20T01:49:25.492Z,949.9
2023-11-20T01:50:27.280Z,949.9
2023-11-20T01:51:29.392Z,949.9
2023-11-20T01:52:31.372Z,949.9
2023-11-20T01:53:33.129Z,949.9
2023-11-20T01:54:34.986Z,949.9
2023-11-20T01:55:36.874Z,949.9
2023-11-20T01:56:38.627Z,949.9
2023-11-20T01:57:40.516Z,949.8
2023-11-20T01:58:42.428Z,949.8
2023-11-20T01:59:44.203Z,949.9
2023-11-20T02:00:46.200Z,949.8
2023-11-20T02:01:48.201Z,949.7
2023-11-20T02:02:50.372Z,949.6
2023-11-20T02:03:52.887Z,949.6
2023-11-20T02:04:54.907Z,949.6
2023-11-20T02:05:56.728Z,949.6
2023-11-20T02:06:58.580Z,949.7
2023-11-20T02:08:00.591Z,949.7
2023-11-20T02:09:02.336Z,949.7
2023-11-20T02:10:04.407Z,949.6
2023-11-20T02:11:08.998Z,949.7
2023-11-20T02:12:10.773Z,949.7
2023-11-20T02:13:12.799Z,949.6
2023-11-20T02:14:14.709Z,949.6
2023-11-20T02:15:16.446Z,949.7
2023-11-20T02:16:18.381Z,949.7
2023-11-20T02:17:20.457Z,949.7
2023-11-20T02:18:22.366Z,949.7
2023-11-20T02:19:24.127Z,949.7
2023-11-20T02:20:25.977Z,949.6
2023-11-20T02:21:27.736Z,949.7
2023-11-20T02:22:29.512Z,949.7
2023-11-20T02:23:31.289Z,949.7
2023-11-20T02:24:33.268Z,949.7
2023-11-20T02:25:35.061Z,949.7
2023-11-20T02:26:36.809Z,949.7
2023-11-20T02:27:38.739Z,949.7
2023-11-20T02:28:40.580Z,949.7
2023-11-20T02:29:45.161Z,949.7
2023-11-20T02:30:47.083Z,949.7
2023-11-20T02:31:49.353Z,949.7
2023-11-20T02:32:51.342Z,949.8
2023-11-20T02:33:53.181Z,949.8
2023-11-20T02:34:55.241Z,949.6
2023-11-20T02:35:56.979Z,949.6
2023-11-20T02:36:58.917Z,949.6
2023-11-20T02:38:01.047Z,949.5
2023-11-20T02:39:02.826Z,949.5
2023-11-20T02:40:04.746Z,949.5
2023-11-20T02:41:06.590Z,949.6
2023-11-20T02:42:08.314Z,949.6
2023-11-20T02:43:10.159Z,949.6
2023-11-20T02:44:12.055Z,949.6
2023-11-20T02:45:13.826Z,949.6
2023-11-20T02:46:15.943Z,949.5
2023-11-20T02:47:18.241Z,949.6
2023-11-20T02:48:20.254Z,949.7
2023-11-20T02:49:22.060Z,949.7
2023-11-20T02:50:23.858Z,949.7
2023-11-20T02:51:25.605Z,949.6
2023-11-20T02:52:27.380Z,949.6
2023-11-20T02:53:29.162Z,949.7
2023-11-20T02:54:31.258Z,949.7
2023-11-20T02:55:33.264Z,949.6
2023-11-20T02:56:35.018Z,949.8
2023-11-20T02:57:36.875Z,949.8
2023-11-20T02:58:38.981Z,949.7
2023-11-20T02:59:40.774Z,949.6
2023-11-20T03:00:42.729Z,949.6
2023-11-20T03:01:44.982Z,949.6
2023-11-20T03:02:47.309Z,949.7
2023-11-20T03:03:50.049Z,949.6
2023-11-20T03:04:52.269Z,949.6
2023-11-20T03:05:54.096Z,949.7
2023-11-20T03:06:56.160Z,949.7
2023-11-20T03:07:57.999Z,949.7
2023-11-20T03:08:59.747Z,949.7
2023-11-20T03:10:01.832Z,949.6
2023-11-20T03:11:03.897Z,949.6
2023-11-20T03:12:05.690Z,949.6
2023-11-20T03:13:07.635Z,949.6
2023-11-20T03:14:09.605Z,949.6
2023-11-20T03:15:11.392Z,949.6
2023-11-20T03:16:14.032Z,949.6
2023-11-20T03:17:16.642Z,949.6
2023-11-20T03:18:19.052Z,949.6
2023-11-20T03:19:21.065Z,949.5
2023-11-20T03:20:22.907Z,949.5
2023-11-20T03:21:24.608Z,949.5
2023-11-20T03:22:26.408Z,949.5
2023-11-20T03:23:28.127Z,949.5
2023-11-20T03:24:29.904Z,949.4
2023-11-20T03:25:31.671Z,949.4
2023-11-20T03:26:33.425Z,949.4
2023-11-20T03:27:35.275Z,949.4
2023-11-20T03:28:37.196Z,949.3
2023-11-20T03:29:39.034Z,949.3
2023-11-20T03:30:41.037Z,949.2
2023-11-20T03:31:42.953Z,949.2
2023-11-20T03:32:45.005Z,949.2
2023-11-20T03:33:47.127Z,949.3
2023-11-20T03:34:48.987Z,949.3
2023-11-20T03:35:50.835Z,949.2
2023-11-20T03:36:52.646Z,949.2
2023-11-20T03:37:54.749Z,949.2
2023-11-20T03:38:56.527Z,949.2
2023-11-20T03:39:58.329Z,949.2
2023-11-20T03:41:00.210Z,949.2
2023-11-20T03:42:01.973Z,949.2
2023-11-20T03:43:03.855Z,949.1
2023-11-20T03:44:05.681Z,949
2023-11-20T03:45:07.453Z,949.1
2023-11-20T03:46:09.609Z,949.1
2023-11-20T03:47:11.587Z,949.2
2023-11-20T03:48:13.412Z,949.2
2023-11-20T03:49:15.281Z,949.2
2023-11-20T03:50:17.037Z,949.2
2023-11-20T03:51:18.870Z,949.3
2023-11-20T03:52:20.655Z,949.3
2023-11-20T03:53:22.367Z,949.3
2023-11-20T03:54:24.120Z,949.2
2023-11-20T03:55:25.963Z,949.2
2023-11-20T03:56:27.815Z,949.3
2023-11-20T03:57:29.795Z,949.3
2023-11-20T03:58:31.582Z,949.3
2023-11-20T03:59:35.608Z,949.2
2023-11-20T04:00:37.476Z,949.1
2023-11-20T04:01:39.594Z,949.1
2023-11-20T04:02:41.788Z,949.2
2023-11-20T04:03:44.011Z,949.2
2023-11-20T04:04:46.408Z,949.3
2023-11-20T04:05:48.536Z,949.2
2023-11-20T04:06:50.456Z,949.2
2023-11-20T04:07:52.308Z,949.2
2023-11-20T04:08:54.067Z,949.2
2023-11-20T04:09:56.166Z,949.1
2023-11-20T04:10:58.058Z,949.1
2023-11-20T04:11:59.882Z,949.1
2023-11-20T04:13:01.832Z,949.1
2023-11-20T04:14:04.016Z,949.1
2023-11-20T04:15:05.820Z,949.1
2023-11-20T04:16:08.504Z,949.1
2023-11-20T04:17:12.060Z,949.1
2023-11-20T04:18:15.826Z,949.1
2023-11-20T04:19:19.301Z,949.2
2023-11-20T04:20:22.720Z,949.1
2023-11-20T04:21:26.281Z,949.2
2023-11-20T04:22:28.970Z,949.2
2023-11-20T04:23:30.721Z,949.1
2023-11-20T04:24:32.505Z,949.1
2023-11-20T04:25:34.284Z,949
2023-11-20T04:26:36.046Z,949
2023-11-20T04:27:37.901Z,949
2023-11-20T04:28:39.740Z,949
2023-11-20T04:29:41.504Z,949.1
2023-11-20T04:30:43.817Z,949.1
2023-11-20T04:31:46.519Z,949.1
2023-11-20T04:32:48.660Z,949.1
2023-11-20T04:33:50.757Z,949.1
2023-11-20T04:34:52.581Z,949.1
2023-11-20T04:35:54.436Z,949.2
2023-11-20T04:36:56.236Z,949.2
2023-11-20T04:37:57.999Z,949.3
2023-11-20T04:38:59.810Z,949.3
2023-11-20T04:40:01.799Z,949.3
2023-11-20T04:41:03.885Z,949.3
2023-11-20T04:42:05.665Z,949.3
2023-11-20T04:43:07.604Z,949.2
2023-11-20T04:44:09.572Z,949.3
2023-11-20T04:45:11.498Z,949.2
2023-11-20T04:46:14.410Z,949.3
2023-11-20T04:47:16.639Z,949.2
2023-11-20T04:48:18.406Z,949.3
2023-11-20T04:49:20.144Z,949.3
2023-11-20T04:50:21.957Z,949.3
2023-11-20T04:51:26.679Z,949.3
2023-11-20T04:52:28.396Z,949.3
2023-11-20T04:53:30.175Z,949.3
2023-11-20T04:54:31.909Z,949.3
2023-11-20T04:55:33.660Z,949.3
2023-11-20T04:56:35.493Z,949.3
2023-11-20T04:57:37.635Z,949.3
2023-11-20T04:58:39.968Z,949.3
2023-11-20T04:59:42.106Z,949.3
2023-11-20T05:00:44.343Z,949.3
2023-11-20T05:01:46.820Z,949.3
2023-11-20T05:02:49.230Z,949.2
2023-11-20T05:03:51.510Z,949.3
2023-11-20T05:04:53.575Z,949.3
2023-11-20T05:05:55.292Z,949.3
2023-11-20T05:06:57.486Z,949.3
2023-11-20T05:07:59.357Z,949.3
2023-11-20T05:09:01.154Z,949.3
2023-11-20T05:10:03.300Z,949.3
2023-11-20T05:11:05.326Z,949.4
2023-11-20T05:12:07.089Z,949.4
2023-11-20T05:13:08.916Z,949.4
2023-11-20T05:14:10.682Z,949.4
2023-11-20T05:15:12.484Z,949.4
2023-11-20T05:16:14.378Z,949.4
2023-11-20T05:17:16.298Z,949.4
2023-11-20T05:18:18.076Z,949.4
2023-11-20T05:19:19.891Z,949.5
2023-11-20T05:20:21.715Z,949.5
2023-11-20T05:21:23.494Z,949.5
2023-11-20T05:22:25.352Z,949.5
2023-11-20T05:23:27.133Z,949.5
2023-11-20T05:24:28.934Z,949.5
2023-11-20T05:25:30.670Z,949.4
2023-11-20T05:26:32.452Z,949.4
2023-11-20T05:27:34.212Z,949.4
2023-11-20T05:28:35.997Z,949.5
2023-11-20T05:29:37.753Z,949.5
2023-11-20T05:30:40.066Z,949.4
2023-11-20T05:31:42.750Z,949.5
2023-11-20T05:32:44.931Z,949.5
2023-11-20T05:33:46.970Z,949.4
2023-11-20T05:34:48.758Z,949.4
2023-11-20T05:35:50.507Z,949.4
2023-11-20T05:36:52.407Z,949.4
2023-11-20T05:37:54.372Z,949.4
2023-11-20T05:38:56.316Z,949.4
2023-11-20T05:39:58.262Z,949.4
2023-11-20T05:41:00.219Z,949.4
2023-11-20T05:42:02.018Z,949.4
2023-11-20T05:43:03.972Z,949.4
2023-11-20T05:44:05.997Z,949.4
2023-11-20T05:45:07.903Z,949.4
2023-11-20T05:46:09.975Z,949.5
2023-11-20T05:47:12.159Z,949.5
2023-11-20T05:48:14.108Z,949.5
2023-11-20T05:49:16.129Z,949.4
2023-11-20T05:50:17.914Z,949.5
2023-11-20T05:51:19.769Z,949.5
2023-11-20T05:52:21.525Z,949.5
2023-11-20T05:53:23.507Z,949.5
2023-11-20T05:54:25.271Z,949.5
2023-11-20T05:55:27.023Z,949.5
2023-11-20T05:56:28.772Z,949.5
2023-11-20T05:57:30.483Z,949.5
2023-11-20T05:58:32.249Z,949.5
2023-11-20T05:59:34.075Z,949.5
2023-11-20T06:00:35.836Z,949.4
2023-11-20T06:01:37.997Z,949.5
2023-11-20T06:02:40.371Z,949.5
2023-11-20T06:03:42.705Z,949.4
2023-11-20T06:04:44.771Z,949.4
2023-11-20T06:05:46.678Z,949.4
2023-11-20T06:06:48.559Z,949.3
2023-11-20T06:07:50.436Z,949.3
2023-11-20T06:08:52.558Z,949.4
2023-11-20T06:09:54.621Z,949.5
2023-11-20T06:10:56.424Z,949.5
2023-11-20T06:11:58.170Z,949.5
2023-11-20T06:13:00.185Z,949.6
2023-11-20T06:14:02.191Z,949.5
2023-11-20T06:15:04.086Z,949.5
2023-11-20T06:16:06.142Z,949.5
2023-11-20T06:17:08.153Z,949.6
2023-11-20T06:18:10.101Z,949.5
2023-11-20T06:19:12.135Z,949.4
2023-11-20T06:20:13.948Z,949.4
2023-11-20T06:21:15.738Z,949.4
2023-11-20T06:22:17.995Z,949.4
2023-11-20T06:23:20.214Z,949.4
2023-11-20T06:24:22.040Z,949.4
2023-11-20T06:25:23.776Z,949.4
2023-11-20T06:26:25.535Z,949.5
2023-11-20T06:27:27.308Z,949.5
2023-11-20T06:28:29.087Z,949.6
2023-11-20T06:29:30.857Z,949.6
2023-11-20T06:30:32.699Z,949.5
2023-11-20T06:31:34.830Z,949.6
2023-11-20T06:32:37.072Z,949.7
2023-11-20T06:33:39.036Z,949.6
2023-11-20T06:34:40.865Z,949.6
2023-11-20T06:35:42.600Z,949.6
2023-11-20T06:36:44.470Z,949.6
2023-11-20T06:37:46.271Z,949.6
2023-11-20T06:38:48.042Z,949.6
2023-11-20T06:39:50.171Z,949.6
2023-11-20T06:40:52.037Z,949.6
2023-11-20T06:41:53.899Z,949.6
2023-11-20T06:42:55.854Z,949.6
2023-11-20T06:43:58.034Z,949.6
2023-11-20T06:44:59.792Z,949.7
2023-11-20T06:46:02.361Z,949.7
2023-11-20T06:47:04.468Z,949.8
2023-11-20T06:48:06.446Z,949.8
2023-11-20T06:49:08.693Z,949.9
2023-11-20T06:50:10.582Z,949.9
2023-11-20T06:51:12.446Z,949.9
2023-11-20T06:52:14.445Z,949.9
2023-11-20T06:53:16.232Z,949.8
2023-11-20T06:54:17.983Z,949.8
2023-11-20T06:55:20.236Z,949.8
2023-11-20T06:56:22.120Z,949.8
2023-11-20T06:57:23.931Z,949.8
2023-11-20T06:58:25.696Z,949.7
2023-11-20T06:59:27.499Z,949.8
2023-11-20T07:00:29.293Z,949.8
2023-11-20T07:01:31.169Z,949.8
2023-11-20T07:02:33.163Z,949.8
2023-11-20T07:03:35.508Z,949.8
2023-11-20T07:04:37.919Z,949.8
2023-11-20T07:05:40.048Z,949.6
2023-11-20T07:06:41.885Z,949.6
2023-11-20T07:07:43.885Z,949.6
2023-11-20T07:08:45.742Z,949.6
2023-11-20T07:09:47.652Z,949.7
2023-11-20T07:10:49.625Z,949.6
2023-11-20T07:11:51.529Z,949.7
2023-11-20T07:12:53.570Z,949.7
2023-11-20T07:13:55.694Z,949.7
2023-11-20T07:14:57.509Z,949.8
2023-11-20T07:15:59.501Z,949.8
2023-11-20T07:17:01.972Z,949.7
2023-11-20T07:18:04.320Z,949.7
2023-11-20T07:19:06.258Z,949.7
2023-11-20T07:20:08.075Z,949.7
2023-11-20T07:21:09.869Z,949.7
2023-11-20T07:22:11.961Z,949.7
2023-11-20T07:23:13.906Z,949.7
2023-11-20T07:24:15.746Z,949.7
2023-11-20T07:25:17.864Z,949.6
2023-11-20T07:26:20.049Z,949.6
2023-11-20T07:27:21.810Z,949.6
2023-11-20T07:28:23.959Z,949.6
2023-11-20T07:29:25.852Z,949.6
2023-11-20T07:30:27.631Z,949.7
2023-11-20T07:31:29.836Z,949.7
2023-11-20T07:32:32.169Z,949.6
2023-11-20T07:33:34.017Z,949.5
2023-11-20T07:34:35.801Z,949.5
2023-11-20T07:35:37.521Z,949.5
2023-11-20T07:36:39.573Z,949.5
2023-11-20T07:37:41.421Z,949.4
2023-11-20T07:38:43.196Z,949.5
2023-11-20T07:39:45.059Z,949.5
2023-11-20T07:40:47.052Z,949.5
2023-11-20T07:41:49.033Z,949.5
2023-11-20T07:42:51.393Z,949.5
2023-11-20T07:43:53.229Z,949.5
2023-11-20T07:44:55.172Z,949.5
2023-11-20T07:45:57.440Z,949.5
2023-11-20T07:47:00.216Z,949.4
2023-11-20T07:48:02.602Z,949.3
2023-11-20T07:49:04.661Z,949.3
2023-11-20T07:50:06.517Z,949.3
2023-11-20T07:51:08.391Z,949.2
2023-11-20T07:52:10.603Z,949.2
2023-11-20T07:53:12.550Z,949.2
2023-11-20T07:54:14.271Z,949.2
2023-11-20T07:55:16.244Z,949.2
2023-11-20T07:56:18.051Z,949.2
2023-11-20T07:57:19.909Z,949.2
2023-11-20T07:58:21.972Z,949.2
2023-11-20T07:59:24.040Z,949.2
2023-11-20T08:00:25.838Z,949.2
2023-11-20T08:01:27.605Z,949.2
2023-11-20T08:02:29.618Z,949.3
2023-11-20T08:03:31.410Z,949.2
2023-11-20T08:04:33.695Z,949.3
2023-11-20T08:05:50.797Z,949.2
2023-11-20T08:06:53.455Z,949.2
2023-11-20T08:07:55.499Z,949.1
2023-11-20T08:08:57.333Z,949.1
2023-11-20T08:09:59.249Z,949.1
2023-11-20T08:11:01.057Z,949.1
2023-11-20T08:12:02.841Z,949.1
2023-11-20T08:13:05.093Z,949.1
2023-11-20T08:14:07.312Z,949.1
2023-11-20T08:15:09.107Z,949.2
2023-11-20T08:16:11.189Z,949.1
2023-11-20T08:17:19.554Z,949.1
2023-11-20T08:18:21.515Z,949.1
2023-11-20T08:19:23.300Z,949.1
2023-11-20T08:20:27.931Z,949.1
2023-11-20T08:21:29.626Z,949.1
2023-11-20T08:22:36.482Z,949.1
2023-11-20T08:23:38.284Z,949.1
2023-11-20T08:24:40.571Z,949.1
2023-11-20T08:25:42.736Z,949.1
2023-11-20T08:26:44.455Z,949.1
2023-11-20T08:27:46.305Z,949.1
2023-11-20T08:28:48.365Z,949.2
2023-11-20T08:29:50.148Z,949.1
2023-11-20T08:30:51.987Z,949
2023-11-20T08:31:53.973Z,949
2023-11-20T08:32:55.957Z,949
2023-11-20T08:33:58.143Z,949
2023-11-20T08:35:00.227Z,948.9
2023-11-20T08:36:02.084Z,949
2023-11-20T08:37:04.460Z,948.9
2023-11-20T08:38:07.035Z,948.9
2023-11-20T08:39:09.194Z,948.8
2023-11-20T08:40:11.662Z,948.9
2023-11-20T08:41:13.670Z,948.9
2023-11-20T08:42:15.484Z,948.9
2023-11-20T08:43:17.564Z,948.9
2023-11-20T08:44:19.716Z,949
2023-11-20T08:45:21.564Z,949
2023-11-20T08:46:24.121Z,949
2023-11-20T08:47:26.554Z,949
2023-11-20T08:48:28.740Z,949
2023-11-20T08:49:30.692Z,949
2023-11-20T08:50:32.453Z,948.9
2023-11-20T08:51:34.369Z,948.9
2023-11-20T08:52:36.277Z,948.9
2023-11-20T08:53:38.132Z,948.9
2023-11-20T08:54:39.884Z,948.9
2023-11-20T08:55:41.821Z,949
2023-11-20T08:56:43.600Z,949
2023-11-20T08:57:45.680Z,949
2023-11-20T08:58:47.504Z,949
2023-11-20T08:59:49.480Z,949
2023-11-20T09:00:51.558Z,949
2023-11-20T09:01:53.774Z,949
2023-11-20T09:02:55.920Z,949
2023-11-20T09:03:58.141Z,948.9
2023-11-20T09:05:00.253Z,949
2023-11-20T09:06:02.204Z,949
2023-11-20T09:07:04.263Z,949
2023-11-20T09:08:06.068Z,949
2023-11-20T09:09:07.837Z,948.9
2023-11-20T09:10:09.841Z,949
2023-11-20T09:11:11.884Z,948.9
2023-11-20T09:12:13.795Z,948.9
2023-11-20T09:13:15.777Z,948.9
2023-11-20T09:14:17.816Z,948.9
2023-11-20T09:15:19.810Z,948.9
2023-11-20T09:16:22.270Z,948.9
2023-11-20T09:17:24.466Z,948.9
2023-11-20T09:18:26.264Z,948.7
2023-11-20T09:19:28.221Z,948.7
2023-11-20T09:20:29.961Z,948.7
2023-11-20T09:21:31.804Z,948.7
2023-11-20T09:22:33.563Z,948.7
2023-11-20T09:23:35.312Z,948.7
2023-11-20T09:24:37.022Z,948.7
2023-11-20T09:25:39.345Z,948.6
2023-11-20T09:26:41.368Z,948.6
2023-11-20T09:27:43.199Z,948.7
2023-11-20T09:28:45.463Z,948.7
2023-11-20T09:29:47.491Z,948.7
2023-11-20T09:30:49.605Z,948.7
2023-11-20T09:31:51.544Z,948.7
2023-11-20T09:32:53.506Z,948.6
2023-11-20T09:33:55.375Z,948.6
2023-11-20T09:34:57.194Z,948.6
2023-11-20T09:35:58.953Z,948.6
2023-11-20T09:37:00.886Z,948.6
2023-11-20T09:38:02.715Z,948.6
2023-11-20T09:39:04.471Z,948.6
2023-11-20T09:40:06.591Z,948.5
2023-11-20T09:41:08.597Z,948.5
2023-11-20T09:42:10.752Z,948.5
2023-11-20T09:43:12.879Z,948.5
2023-11-20T09:44:14.722Z,948.5
2023-11-20T09:45:16.505Z,948.5
2023-11-20T09:46:18.589Z,948.5
2023-11-20T09:47:20.825Z,948.4
2023-11-20T09:48:22.984Z,948.4
2023-11-20T09:49:25.204Z,948.4
2023-11-20T09:50:27.167Z,948.4
2023-11-20T09:51:28.920Z,948.5
2023-11-20T09:52:30.662Z,948.5
2023-11-20T09:53:32.434Z,948.4
2023-11-20T09:54:36.480Z,948.4
2023-11-20T09:55:38.236Z,948.4
2023-11-20T09:56:40.011Z,948.3
2023-11-20T09:57:41.744Z,948.3
2023-11-20T09:58:43.597Z,948.3
2023-11-20T09:59:45.355Z,948.3
2023-11-20T10:00:47.165Z,948.3
2023-11-20T10:01:49.399Z,948.3
2023-11-20T10:02:51.562Z,948.3
2023-11-20T10:03:53.922Z,948.3
2023-11-20T10:04:55.899Z,948.3
2023-11-20T10:05:57.867Z,948.3
2023-11-20T10:06:59.746Z,948.3
2023-11-20T10:08:01.497Z,948.3
2023-11-20T10:09:03.283Z,948.3
2023-11-20T10:10:05.485Z,948.2
2023-11-20T10:11:07.322Z,948.3
2023-11-20T10:12:09.072Z,948.2
2023-11-20T10:13:11.148Z,948.2
2023-11-20T10:14:12.942Z,948.2
2023-11-20T10:15:14.825Z,948.2
2023-11-20T10:16:16.836Z,948.2
2023-11-20T10:17:19.241Z,948.2
2023-11-20T10:18:21.548Z,948.2
2023-11-20T10:19:23.626Z,948.1
2023-11-20T10:20:25.529Z,948.1
2023-11-20T10:21:27.247Z,948.1
2023-11-20T10:22:29.267Z,948.1
2023-11-20T10:23:35.678Z,948.1
2023-11-20T10:24:37.478Z,948.1
2023-11-20T10:25:39.284Z,948.1
2023-11-20T10:26:41.018Z,948.1
2023-11-20T10:27:42.834Z,948.1
2023-11-20T10:28:44.600Z,948.2
2023-11-20T10:29:46.383Z,948.1
2023-11-20T10:30:48.445Z,948.1
2023-11-20T10:31:51.250Z,948.1
2023-11-20T10:32:54.374Z,948.1
2023-11-20T10:33:56.385Z,948.1
2023-11-20T10:34:58.186Z,948.1
2023-11-20T10:36:03.922Z,948
2023-11-20T10:37:06.258Z,948.1
2023-11-20T10:38:08.228Z,948.1
2023-11-20T10:39:10.565Z,948.1
2023-11-20T10:40:12.469Z,948.1
2023-11-20T10:41:14.340Z,948.1
2023-11-20T10:42:16.095Z,948.1
2023-11-20T10:43:18.029Z,948
2023-11-20T10:44:20.248Z,948.1
2023-11-20T10:45:22.018Z,948
2023-11-20T10:46:23.882Z,948
2023-11-20T10:47:25.808Z,947.9
2023-11-20T10:48:28.024Z,947.9
2023-11-20T10:49:30.236Z,947.9
2023-11-20T10:50:32.073Z,947.9
2023-11-20T10:51:33.838Z,947.9
2023-11-20T10:52:35.576Z,947.9
2023-11-20T10:53:37.419Z,947.9
2023-11-20T10:54:39.264Z,948
2023-11-20T10:55:41.116Z,948
2023-11-20T10:56:43.036Z,948
2023-11-20T10:57:44.864Z,948
2023-11-20T10:58:46.706Z,948.1
2023-11-20T10:59:48.432Z,948.1
2023-11-20T11:00:50.657Z,948.1
2023-11-20T11:01:53.245Z,948.1
2023-11-20T11:03:18.426Z,948.1
2023-11-20T11:04:21.590Z,948
2023-11-20T11:05:26.276Z,948
2023-11-20T11:06:28.040Z,948
2023-11-20T11:07:30.258Z,948
2023-11-20T11:08:32.048Z,948.1
2023-11-20T11:09:33.845Z,948.1
2023-11-20T11:10:35.774Z,948.1
2023-11-20T11:11:37.751Z,948.1
2023-11-20T11:12:41.922Z,948.1
2023-11-20T11:13:43.740Z,948.1
2023-11-20T11:14:45.489Z,948.1
2023-11-20T11:15:47.549Z,948.1
2023-11-20T11:16:49.429Z,948.1
2023-11-20T11:17:51.567Z,948.2
2023-11-20T11:18:54.051Z,948.2
2023-11-20T11:19:56.175Z,948.2
2023-11-20T11:20:57.923Z,948.1
2023-11-20T11:21:59.716Z,948.2
2023-11-20T11:23:01.494Z,948.2
2023-11-20T11:24:03.307Z,948.2
2023-11-20T11:25:05.380Z,948.1
2023-11-20T11:26:07.391Z,948.2
2023-11-20T11:27:09.149Z,948.1
2023-11-20T11:28:11.272Z,948.2
2023-11-20T11:29:13.066Z,948.2
2023-11-20T11:30:14.845Z,948.2
2023-11-20T11:31:19.674Z,948.2
2023-11-20T11:32:21.712Z,948.2
2023-11-20T11:33:23.495Z,948.2
2023-11-20T11:34:25.600Z,948.2
2023-11-20T11:35:27.758Z,948.2
2023-11-20T11:36:29.536Z,948.2
2023-11-20T11:37:31.484Z,948.2
2023-11-20T11:38:33.604Z,948.2
2023-11-20T11:39:35.398Z,948.2
2023-11-20T11:40:37.152Z,948.2
2023-11-20T11:41:38.928Z,948.2
2023-11-20T11:42:40.703Z,948.1
2023-11-20T11:43:42.534Z,948.2
2023-11-20T11:44:49.289Z,948.2
2023-11-20T11:45:51.154Z,948.2
2023-11-20T11:46:53.148Z,948.2
2023-11-20T11:48:00.147Z,948.2
2023-11-20T11:49:02.094Z,948.1
2023-11-20T11:50:09.134Z,948.2
2023-11-20T11:51:11.197Z,948.2
2023-11-20T11:52:13.211Z,948.2
2023-11-20T11:53:15.120Z,948.2
2023-11-20T11:54:16.908Z,948.1
2023-11-20T11:55:18.976Z,948.1
2023-11-20T11:56:21.145Z,948.2
2023-11-20T11:57:22.932Z,948.2
2023-11-20T11:58:24.779Z,948.2
2023-11-20T11:59:26.620Z,948.2
2023-11-20T12:00:28.666Z,948.1
2023-11-20T12:01:30.378Z,948.1
2023-11-20T12:02:32.244Z,948.1
2023-11-20T12:03:34.348Z,948
2023-11-20T12:04:36.967Z,948.1
2023-11-20T12:05:39.137Z,948.1
2023-11-20T12:06:41.172Z,948.2
2023-11-20T12:07:42.955Z,948.1
2023-11-20T12:08:44.698Z,948.1
2023-11-20T12:09:46.437Z,948.1
2023-11-20T12:10:48.267Z,948.2
2023-11-20T12:11:49.998Z,948.2
2023-11-20T12:12:52.535Z,948.2
2023-11-20T12:13:54.450Z,948.3
2023-11-20T12:14:56.189Z,948.2
2023-11-20T12:15:58.740Z,948.2
2023-11-20T12:17:01.182Z,948.2
2023-11-20T12:18:04.318Z,948.2
2023-11-20T12:19:06.482Z,948.1
2023-11-20T12:20:08.306Z,948.1
2023-11-20T12:21:10.205Z,948.1
2023-11-20T12:22:12.372Z,948.1
2023-11-20T12:23:14.382Z,948.1
2023-11-20T12:24:16.222Z,948.1
2023-11-20T12:25:18.295Z,948.1
2023-11-20T12:26:20.232Z,948.1
2023-11-20T12:27:22.121Z,948.1
2023-11-20T12:28:24.284Z,948.1
2023-11-20T12:29:26.292Z,948.1
2023-11-20T12:30:28.077Z,948.1
2023-11-20T12:31:30.282Z,948.1
2023-11-20T12:32:32.605Z,948.1
2023-11-20T12:33:34.644Z,948.1
2023-11-20T12:34:36.371Z,948.1
2023-11-20T12:35:38.278Z,948.1
2023-11-20T12:36:40.015Z,948.1
2023-11-20T12:37:41.945Z,948.1
2023-11-20T12:38:43.735Z,948.1
2023-11-20T12:39:45.486Z,948.1
2023-11-20T12:40:47.215Z,948
2023-11-20T12:41:49.046Z,948
2023-11-20T12:42:51.019Z,948
2023-11-20T12:43:52.896Z,948
2023-11-20T12:44:54.692Z,948
2023-11-20T12:45:56.851Z,948
2023-11-20T12:46:59.320Z,948
2023-11-20T12:48:01.380Z,948.1
2023-11-20T12:49:03.565Z,948
2023-11-20T12:50:05.399Z,948
2023-11-20T12:51:07.526Z,948
2023-11-20T12:52:11.166Z,948.1
2023-11-20T12:53:13.280Z,948.1
2023-11-20T12:54:15.110Z,948
2023-11-20T12:55:17.237Z,948
2023-11-20T12:56:19.218Z,948
2023-11-20T12:57:21.069Z,948.1
2023-11-20T12:58:23.181Z,948
2023-11-20T12:59:25.084Z,948.1
2023-11-20T13:00:26.865Z,948
2023-11-20T13:01:28.843Z,948.1
2023-11-20T13:02:31.009Z,948
2023-11-20T13:03:33.762Z,948
2023-11-20T13:04:36.083Z,948
2023-11-20T13:05:38.307Z,948
2023-11-20T13:06:40.229Z,948
2023-11-20T13:07:44.137Z,948
2023-11-20T13:08:46.048Z,947.9
2023-11-20T13:09:47.883Z,948
2023-11-20T13:10:49.829Z,948
2023-11-20T13:11:51.596Z,948
2023-11-20T13:12:53.433Z,948
2023-11-20T13:13:55.246Z,948
2023-11-20T13:14:57.002Z,948.1
2023-11-20T13:16:01.918Z,948
2023-11-20T13:17:04.489Z,948.1
2023-11-20T13:18:06.414Z,948.1
2023-11-20T13:19:08.627Z,948.1
2023-11-20T13:20:10.625Z,948.1
2023-11-20T13:21:12.357Z,948.1
2023-11-20T13:22:14.299Z,948.1
2023-11-20T13:23:16.258Z,948.1
2023-11-20T13:24:18.087Z,948.1
2023-11-20T13:25:19.878Z,948.1
2023-11-20T13:26:21.693Z,948.1